Time;durP1;ratioP1;P1;durP2;ratioP2;P2;SDS_P1;SDS_P2;PMS_P1;PMS_P2;Temp;Humidity;BMP_temperature;BMP_pressure;BME280_temperature;BME280_humidity;BME280_pressure;Samples;Min_cycle;Max_cycle;Signal;HPM_P1;HPM_P2
2020/12/02 00:00:26;;;;;;;26.50;8.77;;;5.30;99.90;;;;;;5044568;28;20298;-77
2020/12/02 00:03:13;;;;;;;33.53;8.95;;;5.20;99.90;;;;;;5059865;28;20045;-80
2020/12/02 00:05:52;;;;;;;21.75;7.55;;;5.20;99.90;;;;;;5059757;28;20042;-80
2020/12/02 00:09:06;;;;;;;20.30;9.52;;;5.20;99.90;;;;;;5060000;28;20028;-80
2020/12/02 00:11:31;;;;;;;26.92;8.52;;;5.20;99.90;;;;;;5055323;28;20025;-81
2020/12/02 00:14:03;;;;;;;24.35;9.23;;;5.40;99.90;;;;;;5059955;28;20020;-79
2020/12/02 00:16:31;;;;;;;20.48;9.45;;;5.30;99.90;;;;;;5044945;28;20022;-79
2020/12/02 00:18:57;;;;;;;17.20;7.88;;;5.30;99.90;;;;;;5044655;28;20021;-79
2020/12/02 00:21:25;;;;;;;18.48;7.55;;;5.30;99.90;;;;;;5044416;28;20029;-80
2020/12/02 00:23:52;;;;;;;21.40;8.35;;;5.20;99.90;;;;;;5042919;28;20025;-78
2020/12/02 00:26:19;;;;;;;23.33;8.85;;;5.20;99.90;;;;;;5043884;28;20013;-79
2020/12/02 00:28:45;;;;;;;24.25;10.02;;;5.30;99.90;;;;;;5044241;28;20370;-78
2020/12/02 00:31:12;;;;;;;22.30;10.07;;;5.30;99.90;;;;;;5043030;28;20022;-80
2020/12/02 00:33:38;;;;;;;20.05;8.25;;;5.20;99.90;;;;;;5043306;28;20085;-80
2020/12/02 00:36:04;;;;;;;24.58;10.23;;;5.20;99.90;;;;;;5059986;28;20048;-80
2020/12/02 00:38:29;;;;;;;22.95;9.27;;;5.30;99.90;;;;;;5043192;28;20053;-78
2020/12/02 00:40:56;;;;;;;26.88;9.05;;;5.30;99.90;;;;;;5043289;28;20029;-78
2020/12/02 00:43:24;;;;;;;26.52;9.77;;;5.30;99.90;;;;;;5059560;28;20041;-79
2020/12/02 00:45:53;;;;;;;28.08;9.32;;;5.30;99.90;;;;;;5059524;28;20028;-79
2020/12/02 00:48:22;;;;;;;31.23;10.10;;;5.20;99.90;;;;;;5059577;28;20105;-80
2020/12/02 00:50:48;;;;;;;26.75;9.98;;;5.20;99.90;;;;;;5044248;28;20025;-78
2020/12/02 00:53:16;;;;;;;28.27;10.82;;;5.20;99.90;;;;;;5059522;28;20022;-78
2020/12/02 00:55:44;;;;;;;30.90;10.88;;;5.20;99.90;;;;;;5042816;28;20026;-78
2020/12/02 00:58:15;;;;;;;21.13;9.30;;;5.20;99.90;;;;;;5047646;28;20086;-79
2020/12/02 01:00:41;;;;;;;33.10;12.43;;;5.20;99.90;;;;;;5046784;28;20026;-80
2020/12/02 01:03:16;;;;;;;24.08;9.43;;;5.20;99.90;;;;;;5047807;28;20052;-78
2020/12/02 01:05:45;;;;;;;32.00;10.80;;;5.10;99.90;;;;;;5047853;28;20108;-79
2020/12/02 01:08:24;;;;;;;29.10;10.57;;;5.10;99.90;;;;;;5046598;28;20497;-77
2020/12/02 01:11:01;;;;;;;25.92;10.32;;;5.10;99.90;;;;;;5048184;28;20025;-78
2020/12/02 01:13:26;;;;;;;29.05;10.68;;;5.10;99.90;;;;;;5046433;28;20031;-79
2020/12/02 01:15:52;;;;;;;27.80;9.63;;;5.10;99.90;;;;;;5046439;28;20053;-77
2020/12/02 01:18:25;;;;;;;28.27;10.55;;;5.10;99.90;;;;;;5046373;28;20114;-79
2020/12/02 01:21:26;;;;;;;22.80;10.10;;;5.10;99.90;;;;;;5047626;28;20445;-77
2020/12/02 01:23:59;;;;;;;32.63;10.10;;;5.10;99.90;;;;;;5042369;28;20053;-79
2020/12/02 01:26:31;;;;;;;25.17;10.38;;;5.20;99.90;;;;;;5047619;28;20026;-78
2020/12/02 01:29:00;;;;;;;31.50;11.05;;;5.10;99.90;;;;;;5046322;28;20025;-80
2020/12/02 01:31:26;;;;;;;24.35;9.63;;;5.20;99.90;;;;;;5046076;28;20562;-78
2020/12/02 01:33:53;;;;;;;30.08;10.82;;;5.10;99.90;;;;;;5047355;28;20021;-79
2020/12/02 01:36:22;;;;;;;32.60;10.20;;;5.20;99.90;;;;;;5047523;28;20033;-78
2020/12/02 01:38:49;;;;;;;30.63;12.20;;;5.10;99.90;;;;;;5047305;28;20030;-78
2020/12/02 01:41:15;;;;;;;33.97;11.90;;;5.10;99.90;;;;;;5046067;28;20093;-79
2020/12/02 01:43:41;;;;;;;31.70;12.38;;;5.20;99.90;;;;;;5045741;28;20041;-80
2020/12/02 01:46:35;;;;;;;30.00;11.02;;;5.10;99.90;;;;;;5045972;28;20052;-77
2020/12/02 01:49:17;;;;;;;30.42;12.32;;;5.10;99.90;;;;;;5046256;28;20109;-80
2020/12/02 01:51:54;;;;;;;36.63;12.30;;;5.10;99.90;;;;;;5047051;28;20108;-78
2020/12/02 01:54:37;;;;;;;34.75;11.43;;;5.10;99.90;;;;;;5045817;28;20022;-79
2020/12/02 01:57:32;;;;;;;32.83;13.48;;;5.10;99.90;;;;;;5046034;28;20028;-78
2020/12/02 02:00:24;;;;;;;32.42;12.77;;;5.10;99.90;;;;;;5045866;28;20032;-77
2020/12/02 02:03:08;;;;;;;34.03;11.90;;;5.00;99.90;;;;;;5045502;28;20616;-80
2020/12/02 02:05:34;;;;;;;31.60;12.45;;;5.00;99.90;;;;;;5044626;28;20104;-80
2020/12/02 02:08:00;;;;;;;31.52;11.18;;;5.00;99.90;;;;;;5045979;28;20076;-80
2020/12/02 02:10:35;;;;;;;42.90;12.35;;;5.00;99.90;;;;;;5045415;28;20029;-77
2020/12/02 02:13:28;;;;;;;37.25;12.02;;;5.00;99.90;;;;;;5046967;28;20108;-79
2020/12/02 02:16:01;;;;;;;31.08;11.85;;;5.00;99.90;;;;;;5046713;28;20021;-80
2020/12/02 02:18:29;;;;;;;39.47;13.68;;;5.10;99.90;;;;;;5045379;28;20024;-78
2020/12/02 02:20:56;;;;;;;36.92;13.35;;;5.10;99.90;;;;;;5045635;28;20018;-77
2020/12/02 02:23:22;;;;;;;39.55;12.60;;;5.00;99.90;;;;;;5046450;28;20042;-78
2020/12/02 02:25:59;;;;;;;41.88;14.23;;;5.00;99.90;;;;;;5046267;28;20025;-78
2020/12/02 02:28:26;;;;;;;37.03;12.63;;;5.10;99.90;;;;;;5045201;28;20033;-79
2020/12/02 02:30:52;;;;;;;39.25;14.48;;;5.00;99.90;;;;;;5046406;28;20025;-79
2020/12/02 02:33:18;;;;;;;38.85;13.40;;;5.10;99.90;;;;;;5046427;28;20082;-79
2020/12/02 02:35:44;;;;;;;33.33;13.27;;;5.00;99.90;;;;;;5045041;28;20022;-80
2020/12/02 02:38:10;;;;;;;36.83;14.13;;;5.00;99.90;;;;;;5045279;28;20044;-78
2020/12/02 02:40:35;;;;;;;37.75;14.13;;;5.00;99.90;;;;;;5046468;28;20029;-80
2020/12/02 02:43:03;;;;;;;32.90;11.85;;;5.00;99.90;;;;;;5061450;28;20032;-79
2020/12/02 02:45:29;;;;;;;37.53;13.00;;;5.00;99.90;;;;;;5044853;28;20022;-78
2020/12/02 02:47:57;;;;;;;27.88;12.00;;;5.00;99.90;;;;;;5045904;28;20025;-79
2020/12/02 02:50:24;;;;;;;35.40;12.85;;;5.00;99.90;;;;;;5044700;28;20474;-79
2020/12/02 02:52:51;;;;;;;31.52;12.38;;;5.00;99.90;;;;;;5044682;28;20028;-78
2020/12/02 02:55:22;;;;;;;28.25;12.00;;;5.00;99.90;;;;;;5044417;28;20083;-80
2020/12/02 02:57:48;;;;;;;35.03;12.10;;;5.00;99.90;;;;;;5044717;28;20084;-79
2020/12/02 03:00:19;;;;;;;32.38;12.25;;;5.00;99.90;;;;;;5044541;28;20043;-80
2020/12/02 03:02:45;;;;;;;34.22;12.35;;;5.00;99.90;;;;;;5044264;28;20041;-80
2020/12/02 03:05:11;;;;;;;36.20;13.05;;;5.10;99.90;;;;;;5044348;28;20041;-79
2020/12/02 03:07:39;;;;;;;29.98;13.70;;;5.00;99.90;;;;;;5045735;28;20028;-79
2020/12/02 03:10:05;;;;;;;32.13;11.00;;;4.90;99.90;;;;;;5044512;28;20032;-79
2020/12/02 03:12:31;;;;;;;27.05;11.85;;;5.00;99.90;;;;;;5044467;28;20021;-78
2020/12/02 03:14:57;;;;;;;37.88;12.05;;;5.00;99.90;;;;;;5044489;28;20109;-79
2020/12/02 03:17:25;;;;;;;39.30;12.48;;;4.90;99.90;;;;;;5044086;28;20037;-78
2020/12/02 03:20:04;;;;;;;30.85;12.02;;;4.90;99.90;;;;;;5043924;28;20022;-78
2020/12/02 03:22:31;;;;;;;32.20;11.15;;;4.80;99.90;;;;;;5044404;28;20120;-78
2020/12/02 03:24:58;;;;;;;32.97;11.10;;;4.80;99.90;;;;;;5043932;28;20080;-79
2020/12/02 03:27:25;;;;;;;26.83;12.68;;;4.90;99.90;;;;;;5045501;28;20030;-79
2020/12/02 03:29:51;;;;;;;31.13;12.52;;;4.90;99.90;;;;;;5044006;28;20022;-80
2020/12/02 03:32:17;;;;;;;37.65;13.13;;;4.90;99.90;;;;;;5043937;28;20045;-79
2020/12/02 03:34:42;;;;;;;28.48;11.43;;;4.90;99.90;;;;;;5043935;28;20024;-77
2020/12/02 03:37:08;;;;;;;34.28;12.35;;;5.00;99.90;;;;;;5043994;28;20021;-79
2020/12/02 03:39:34;;;;;;;31.00;12.23;;;4.90;99.90;;;;;;5043885;28;20025;-80
2020/12/02 03:41:59;;;;;;;33.50;12.40;;;4.90;99.90;;;;;;5043861;28;20037;-79
2020/12/02 03:44:25;;;;;;;39.10;12.43;;;4.80;99.90;;;;;;5045030;28;20049;-78
2020/12/02 03:46:50;;;;;;;27.35;11.75;;;4.80;99.90;;;;;;5043748;28;20017;-79
2020/12/02 03:49:16;;;;;;;30.38;12.05;;;4.70;99.90;;;;;;5043732;28;20023;-77
2020/12/02 03:51:42;;;;;;;35.85;13.95;;;4.70;99.90;;;;;;5043628;28;20021;-78
2020/12/02 03:54:08;;;;;;;30.58;12.63;;;4.80;99.90;;;;;;5044735;28;20044;-78
2020/12/02 03:56:34;;;;;;;36.22;13.10;;;4.70;99.90;;;;;;5043794;28;20064;-80
2020/12/02 03:58:59;;;;;;;39.53;12.95;;;4.60;99.90;;;;;;5044951;28;20025;-79
2020/12/02 04:01:25;;;;;;;29.38;10.68;;;4.60;99.90;;;;;;5044815;28;20486;-79
2020/12/02 04:03:51;;;;;;;30.90;12.20;;;4.60;99.90;;;;;;5043178;28;20072;-79
2020/12/02 04:06:17;;;;;;;23.40;9.93;;;4.60;99.90;;;;;;5044952;28;20037;-78
2020/12/02 04:08:43;;;;;;;38.75;14.05;;;4.60;99.90;;;;;;5060079;28;20022;-79
2020/12/02 04:11:10;;;;;;;29.73;12.13;;;4.60;99.90;;;;;;5043348;28;20021;-79
2020/12/02 04:13:36;;;;;;;28.38;11.65;;;4.60;99.90;;;;;;5044671;28;20044;-81
2020/12/02 04:16:03;;;;;;;32.53;12.93;;;4.50;99.90;;;;;;5043404;28;20028;-80
2020/12/02 04:18:29;;;;;;;28.35;11.20;;;4.50;99.90;;;;;;5043354;28;20053;-78
2020/12/02 04:20:55;;;;;;;26.50;11.25;;;4.50;99.90;;;;;;5043090;28;20056;-80
2020/12/02 04:23:21;;;;;;;25.25;10.75;;;4.50;99.90;;;;;;5044433;28;20030;-79
2020/12/02 04:25:47;;;;;;;29.10;11.35;;;4.50;99.90;;;;;;5043188;28;20120;-78
2020/12/02 04:28:13;;;;;;;29.35;12.95;;;4.40;99.90;;;;;;5043201;28;20025;-80
2020/12/02 04:30:40;;;;;;;34.08;13.20;;;4.40;99.90;;;;;;5043104;28;20045;-80
2020/12/02 04:33:06;;;;;;;45.25;13.07;;;4.40;99.90;;;;;;5046698;28;20017;-79
2020/12/02 04:35:31;;;;;;;28.58;12.90;;;4.40;99.90;;;;;;5047565;28;20028;-79
2020/12/02 04:37:57;;;;;;;29.17;11.38;;;4.40;99.90;;;;;;5048431;28;20064;-79
2020/12/02 04:40:28;;;;;;;27.35;11.38;;;4.40;99.90;;;;;;5047057;28;20025;-80
2020/12/02 04:43:02;;;;;;;20.67;10.65;;;4.40;99.90;;;;;;5048652;28;20075;-79
2020/12/02 04:45:29;;;;;;;;;;;4.40;99.90;;;;;;5047597;28;20087;-80
2020/12/02 04:48:01;;;;;;;34.97;13.27;;;4.40;99.90;;;;;;5046964;28;19905;-80
2020/12/02 04:50:28;;;;;;;24.75;11.43;;;4.40;99.90;;;;;;5046994;28;20099;-80
2020/12/02 04:53:13;;;;;;;27.65;11.30;;;4.40;99.90;;;;;;5048269;28;20044;-78
2020/12/02 04:55:41;;;;;;;23.55;11.77;;;4.40;99.90;;;;;;5046663;28;20048;-80
2020/12/02 04:58:30;;;;;;;34.47;11.45;;;4.40;99.90;;;;;;5063686;28;20025;-80
2020/12/02 05:01:19;;;;;;;28.90;12.30;;;4.40;99.90;;;;;;5048258;28;20029;-80
2020/12/02 05:03:57;;;;;;;43.95;12.95;;;4.40;99.90;;;;;;5047761;28;20052;-79
2020/12/02 05:06:28;;;;;;;34.70;12.45;;;4.50;99.90;;;;;;5048185;28;20108;-79
2020/12/02 05:09:10;;;;;;;28.60;11.68;;;4.50;99.90;;;;;;5047877;28;20021;-79
2020/12/02 05:11:36;;;;;;;35.00;13.55;;;4.50;99.90;;;;;;5046894;28;20025;-79
2020/12/02 05:14:04;;;;;;;26.65;10.55;;;4.50;99.90;;;;;;5046571;28;20048;-79
2020/12/02 05:16:30;;;;;;;27.33;11.52;;;4.60;99.90;;;;;;5046798;28;20033;-80
2020/12/02 05:19:01;;;;;;;32.08;10.88;;;4.50;99.90;;;;;;5046767;28;20026;-78
2020/12/02 05:21:32;;;;;;;35.70;12.50;;;4.50;99.90;;;;;;5046074;28;20607;-79
2020/12/02 05:24:02;;;;;;;28.02;9.63;;;4.50;99.90;;;;;;5047573;28;20064;-81
2020/12/02 05:26:33;;;;;;;23.00;10.63;;;4.60;99.90;;;;;;5046391;28;20014;-79
2020/12/02 05:29:04;;;;;;;23.67;11.43;;;4.60;99.90;;;;;;5046397;28;20017;-81
2020/12/02 05:31:32;;;;;;;25.15;10.15;;;4.60;99.90;;;;;;5046370;28;20036;-79
2020/12/02 05:34:15;;;;;;;30.77;10.95;;;4.60;99.90;;;;;;5046536;28;20024;-78
2020/12/02 05:36:46;;;;;;;28.90;12.30;;;4.60;99.90;;;;;;5046178;28;20029;-80
2020/12/02 05:39:41;;;;;;;31.25;12.25;;;4.60;99.90;;;;;;5045970;28;20022;-78
2020/12/02 05:42:11;;;;;;;;;;;4.60;99.90;;;;;;5046317;28;20022;-79
2020/12/02 05:44:41;;;;;;;22.02;10.43;;;4.60;99.90;;;;;;5046189;28;19948;-79
2020/12/02 05:47:12;;;;;;;24.73;11.02;;;4.60;99.90;;;;;;5045805;28;20043;-81
2020/12/02 05:49:43;;;;;;;24.08;10.60;;;4.60;99.90;;;;;;5046020;28;20017;-79
2020/12/02 05:52:40;;;;;;;24.67;10.73;;;4.60;99.90;;;;;;5045858;28;20037;-79
2020/12/02 05:55:30;;;;;;;51.17;12.27;;;4.60;99.90;;;;;;5044863;28;20084;-78
2020/12/02 05:58:05;;;;;;;32.63;11.27;;;4.60;99.90;;;;;;5045640;28;20021;-78
2020/12/02 06:00:32;;;;;;;33.00;12.77;;;4.60;99.90;;;;;;5045997;28;20036;-79
2020/12/02 06:02:58;;;;;;;24.52;11.52;;;4.60;99.90;;;;;;5045029;28;20049;-80
2020/12/02 06:05:27;;;;;;;29.88;11.93;;;4.60;99.90;;;;;;5045378;28;20024;-80
2020/12/02 06:07:59;;;;;;;30.15;12.45;;;4.60;99.90;;;;;;5045343;28;20504;-81
2020/12/02 06:10:34;;;;;;;24.67;10.63;;;4.60;99.90;;;;;;5045573;28;20022;-80
2020/12/02 06:13:00;;;;;;;27.77;11.13;;;4.60;99.90;;;;;;5045389;28;20026;-80
2020/12/02 06:15:26;;;;;;;25.55;11.68;;;4.60;99.90;;;;;;5045418;28;20036;-80
2020/12/02 06:18:17;;;;;;;26.88;12.52;;;4.60;99.90;;;;;;5044810;28;20093;-79
2020/12/02 06:20:47;;;;;;;31.77;12.30;;;4.60;99.90;;;;;;5045114;28;20049;-80
2020/12/02 06:23:12;;;;;;;31.27;11.73;;;4.60;99.90;;;;;;5044998;28;20070;-78
2020/12/02 06:25:53;;;;;;;32.03;11.70;;;4.60;99.90;;;;;;5046467;28;20021;-80
2020/12/02 06:28:21;;;;;;;32.88;10.95;;;4.60;99.90;;;;;;5044966;28;20017;-80
2020/12/02 06:31:23;;;;;;;29.33;11.10;;;4.60;99.90;;;;;;5045250;28;20021;-80
2020/12/02 06:33:50;;;;;;;22.17;10.85;;;4.50;99.90;;;;;;5044935;28;20175;-79
2020/12/02 06:36:18;;;;;;;21.17;10.25;;;4.50;99.90;;;;;;5044932;28;20026;-80
2020/12/02 06:38:47;;;;;;;26.60;11.88;;;4.50;99.90;;;;;;5044817;28;20089;-80
2020/12/02 06:41:27;;;;;;;29.60;12.20;;;4.60;99.90;;;;;;5044931;28;20116;-79
2020/12/02 06:44:13;;;;;;;33.67;12.75;;;4.50;99.90;;;;;;5044503;28;20037;-79
2020/12/02 06:46:42;;;;;;;22.60;10.48;;;4.50;99.90;;;;;;5045758;28;20122;-81
2020/12/02 06:49:10;;;;;;;27.52;11.52;;;4.50;99.90;;;;;;5051820;28;20021;-79
2020/12/02 06:52:02;;;;;;;26.00;11.40;;;4.50;99.90;;;;;;5049069;28;20100;-80
2020/12/02 06:54:30;;;;;;;20.42;9.57;;;4.50;99.90;;;;;;5049232;28;20033;-77
2020/12/02 06:57:04;;;;;;;23.98;10.25;;;4.50;99.90;;;;;;5047929;28;20030;-77
2020/12/02 06:59:30;;;;;;;27.88;12.82;;;4.60;99.90;;;;;;5046771;28;20048;-78
2020/12/02 07:02:03;;;;;;;33.22;11.60;;;4.60;99.90;;;;;;5045693;28;20026;-77
2020/12/02 07:04:36;;;;;;;27.77;10.68;;;4.50;99.90;;;;;;5046462;28;20097;-77
2020/12/02 07:07:04;;;;;;;27.85;11.88;;;4.50;99.90;;;;;;5045970;28;20025;-77
2020/12/02 07:09:31;;;;;;;30.40;11.82;;;4.40;99.90;;;;;;5045351;28;20040;-77
2020/12/02 07:12:01;;;;;;;26.52;11.82;;;4.50;99.90;;;;;;5045650;28;20028;-77
2020/12/02 07:14:39;;;;;;;26.95;11.07;;;4.50;99.90;;;;;;5043991;28;20017;-76
2020/12/02 07:17:09;;;;;;;25.70;11.18;;;4.50;99.90;;;;;;5044888;28;20052;-76
2020/12/02 07:19:48;;;;;;;24.38;10.50;;;4.50;99.90;;;;;;5044008;28;20112;-75
2020/12/02 07:22:24;;;;;;;30.20;11.68;;;4.50;99.90;;;;;;5044956;28;20018;-75
2020/12/02 07:24:53;;;;;;;24.73;9.80;;;4.50;99.90;;;;;;5046048;28;20128;-75
2020/12/02 07:27:21;;;;;;;24.15;11.05;;;4.50;99.90;;;;;;5060763;28;20489;-78
2020/12/02 07:30:05;;;;;;;30.35;11.20;;;4.50;99.90;;;;;;5042959;28;20029;-78
2020/12/02 07:32:31;;;;;;;29.50;10.77;;;4.50;99.90;;;;;;5043205;28;20021;-75
2020/12/02 07:35:13;;;;;;;22.75;9.75;;;4.50;99.90;;;;;;5043622;28;20900;-78
2020/12/02 07:37:38;;;;;;;22.80;10.50;;;4.50;99.90;;;;;;5044698;28;20021;-77
2020/12/02 07:40:06;;;;;;;29.10;12.48;;;4.50;99.90;;;;;;5044019;28;20026;-78
2020/12/02 07:42:43;;;;;;;22.65;10.98;;;4.50;99.90;;;;;;5044163;28;20056;-76
2020/12/02 07:45:14;;;;;;;22.30;10.60;;;4.50;99.90;;;;;;5043722;28;20033;-77
2020/12/02 07:47:58;;;;;;;28.60;11.57;;;4.50;99.90;;;;;;5043119;28;20025;-78
2020/12/02 07:50:31;;;;;;;33.53;11.40;;;4.60;99.90;;;;;;5042996;28;20029;-77
2020/12/02 07:53:33;;;;;;;21.77;10.27;;;4.60;99.90;;;;;;5043051;28;20025;-78
2020/12/02 07:56:00;;;;;;;19.08;10.20;;;4.60;99.90;;;;;;5044754;28;20029;-77
2020/12/02 07:58:31;;;;;;;25.17;11.38;;;4.60;99.90;;;;;;5042980;28;20029;-78
2020/12/02 08:01:17;;;;;;;26.90;10.48;;;4.60;99.90;;;;;;5042851;28;20428;-77
2020/12/02 08:03:43;;;;;;;30.23;11.50;;;4.60;99.90;;;;;;5042462;28;20064;-77
2020/12/02 08:06:09;;;;;;;27.15;11.90;;;4.60;99.90;;;;;;5047871;28;20013;-79
2020/12/02 08:08:35;;;;;;;28.38;11.68;;;4.60;99.90;;;;;;5062957;28;20021;-78
2020/12/02 08:11:12;;;;;;;30.35;9.93;;;4.60;99.90;;;;;;5064310;28;20515;-76
2020/12/02 08:13:50;;;;;;;23.08;10.45;;;4.60;99.90;;;;;;5062851;28;20017;-79
2020/12/02 08:16:30;;;;;;;25.25;10.68;;;4.60;99.90;;;;;;5062876;28;20017;-78
2020/12/02 08:18:57;;;;;;;19.75;10.93;;;4.60;99.90;;;;;;5062275;28;20025;-77
2020/12/02 08:21:27;;;;;;;24.02;9.90;;;4.60;99.90;;;;;;5062578;28;20029;-77
2020/12/02 08:24:05;;;;;;;35.20;10.95;;;4.60;99.90;;;;;;5063340;28;20065;-77
2020/12/02 08:26:31;;;;;;;27.33;10.35;;;4.60;99.90;;;;;;5064406;28;20090;-78
2020/12/02 08:29:08;;;;;;;28.10;11.70;;;4.60;99.90;;;;;;5064938;28;20017;-78
2020/12/02 08:31:35;;;;;;;25.40;10.27;;;4.50;99.90;;;;;;5064381;28;20017;-77
2020/12/02 08:34:16;;;;;;;21.48;9.60;;;4.60;99.90;;;;;;5063433;28;20021;-78
2020/12/02 08:36:51;;;;;;;22.65;11.00;;;4.60;99.90;;;;;;5062889;28;20092;-78
2020/12/02 08:39:33;;;;;;;29.60;12.70;;;4.70;99.90;;;;;;5062415;28;20074;-78
2020/12/02 08:41:59;;;;;;;25.35;11.02;;;4.70;99.90;;;;;;5062865;28;20025;-79
2020/12/02 08:44:24;;;;;;;25.98;10.60;;;4.70;99.90;;;;;;5063079;28;20581;-80
2020/12/02 08:46:58;;;;;;;20.98;9.60;;;4.70;99.90;;;;;;5063887;28;20029;-78
2020/12/02 08:49:27;;;;;;;28.88;10.00;;;4.60;99.90;;;;;;5064238;28;20040;-79
2020/12/02 08:51:53;;;;;;;25.20;11.07;;;4.70;99.90;;;;;;5062347;28;20044;-79
2020/12/02 08:54:22;;;;;;;19.05;9.52;;;4.60;99.90;;;;;;5061474;28;20025;-80
2020/12/02 08:56:48;;;;;;;25.48;10.85;;;4.60;99.90;;;;;;5062252;28;20025;-81
2020/12/02 08:59:14;;;;;;;19.50;9.57;;;4.60;99.90;;;;;;5062605;28;20036;-78
2020/12/02 09:01:41;;;;;;;21.17;9.73;;;4.60;99.90;;;;;;5060159;28;20423;-79
2020/12/02 09:04:07;;;;;;;29.20;11.82;;;4.70;99.90;;;;;;5063432;28;20134;-80
2020/12/02 09:06:33;;;;;;;22.08;9.63;;;4.70;99.90;;;;;;5062575;28;20025;-80
2020/12/02 09:08:59;;;;;;;25.75;12.02;;;4.70;99.90;;;;;;5062546;28;20028;-81
2020/12/02 09:11:31;;;;;;;22.77;10.15;;;4.70;99.90;;;;;;5062882;28;20031;-78
2020/12/02 09:13:57;;;;;;;29.15;11.70;;;4.70;99.90;;;;;;5063914;28;20021;-80
2020/12/02 09:16:27;;;;;;;21.83;9.73;;;4.70;99.90;;;;;;5062918;28;20021;-81
2020/12/02 09:18:54;;;;;;;27.63;10.15;;;4.70;99.90;;;;;;5067165;28;20029;-80
2020/12/02 09:21:21;;;;;;;30.00;11.10;;;4.70;99.90;;;;;;5063628;28;20021;-80
2020/12/02 09:23:46;;;;;;;25.98;10.70;;;4.70;99.90;;;;;;5065888;28;20044;-80
2020/12/02 09:26:16;;;;;;;20.50;10.00;;;4.70;99.90;;;;;;5066078;28;20017;-83
2020/12/02 09:28:41;;;;;;;22.30;8.75;;;4.70;99.90;;;;;;5067208;28;20089;-83
2020/12/02 09:31:08;;;;;;;23.02;10.35;;;4.70;99.90;;;;;;5066150;28;20017;-83
2020/12/02 09:33:35;;;;;;;30.63;11.25;;;4.80;99.90;;;;;;5067487;28;20032;-84
2020/12/02 09:36:00;;;;;;;24.65;9.45;;;4.80;99.90;;;;;;5067516;28;20116;-82
2020/12/02 09:38:38;;;;;;;21.85;10.75;;;4.90;99.90;;;;;;5066741;28;20021;-84
2020/12/02 09:41:26;;;;;;;25.25;10.88;;;4.90;99.90;;;;;;5064910;28;20025;-81
2020/12/02 09:44:31;;;;;;;19.08;10.02;;;4.90;99.90;;;;;;5065084;28;20037;-84
2020/12/02 09:46:59;;;;;;;20.73;8.90;;;4.90;99.90;;;;;;5064566;28;20122;-80
2020/12/02 09:49:24;;;;;;;18.40;9.43;;;5.00;99.90;;;;;;5066437;28;20029;-80
2020/12/02 09:52:09;;;;;;;21.85;9.18;;;4.90;99.90;;;;;;5067577;28;20028;-82
2020/12/02 09:54:39;;;;;;;25.20;10.52;;;4.90;99.90;;;;;;5067841;28;20025;-81
2020/12/02 09:57:28;;;;;;;22.92;11.77;;;4.90;99.90;;;;;;5066694;28;20084;-82
2020/12/02 09:59:56;;;;;;;25.05;10.05;;;4.90;99.90;;;;;;5066541;28;20076;-82
2020/12/02 10:02:36;;;;;;;17.45;9.20;;;4.90;99.90;;;;;;5063557;28;20128;-86
2020/12/02 10:05:08;;;;;;;19.40;9.38;;;4.90;99.90;;;;;;5066052;28;20036;-81
2020/12/02 10:08:15;;;;;;;20.80;9.23;;;4.90;99.90;;;;;;5065229;28;20025;-82
2020/12/02 10:10:59;;;;;;;23.23;7.93;;;4.90;99.90;;;;;;5065249;28;20029;-79
2020/12/02 10:13:52;;;;;;;20.73;9.32;;;4.90;99.90;;;;;;5064748;28;20112;-81
2020/12/02 10:16:52;;;;;;;24.27;10.38;;;4.90;99.90;;;;;;5064711;28;20040;-80
2020/12/02 10:19:33;;;;;;;22.52;10.50;;;5.00;99.90;;;;;;5066720;28;20052;-80
2020/12/02 10:22:21;;;;;;;23.75;10.95;;;5.00;99.90;;;;;;5064915;28;20040;-80
2020/12/02 10:25:00;;;;;;;21.63;9.50;;;4.90;99.90;;;;;;5066416;28;20037;-81
2020/12/02 10:27:44;;;;;;;22.73;9.90;;;4.90;99.90;;;;;;5066171;28;20052;-80
2020/12/02 10:30:41;;;;;;;18.95;9.20;;;4.90;99.90;;;;;;5063575;28;20017;-81
2020/12/02 10:33:27;;;;;;;25.00;10.52;;;4.90;99.90;;;;;;5064712;28;20051;-80
2020/12/02 10:35:54;;;;;;;21.75;8.77;;;5.00;99.90;;;;;;5065092;28;20036;-80
2020/12/02 10:38:33;;;;;;;20.45;9.20;;;5.00;99.90;;;;;;5064630;28;20029;-80
2020/12/02 10:41:10;;;;;;;22.17;10.07;;;5.10;99.90;;;;;;5065108;28;20116;-82
2020/12/02 10:43:46;;;;;;;23.90;9.98;;;5.10;99.90;;;;;;5064891;28;20033;-82
2020/12/02 10:46:23;;;;;;;24.63;10.82;;;5.10;99.90;;;;;;5064756;28;20021;-81
2020/12/02 10:49:03;;;;;;;23.55;10.57;;;5.00;99.90;;;;;;5064492;28;20078;-81
2020/12/02 10:51:36;;;;;;;22.38;9.77;;;5.00;99.90;;;;;;5065994;28;20036;-81
2020/12/02 10:54:12;;;;;;;28.23;9.85;;;5.00;99.90;;;;;;5064922;28;20025;-81
2020/12/02 10:56:42;;;;;;;24.10;10.32;;;5.10;99.90;;;;;;5064422;28;20020;-82
2020/12/02 10:59:12;;;;;;;16.70;8.20;;;5.00;99.90;;;;;;5064468;28;20051;-82
2020/12/02 11:01:40;;;;;;;21.38;9.93;;;5.10;99.90;;;;;;5064778;28;20410;-81
2020/12/02 11:04:06;;;;;;;19.63;8.85;;;5.10;99.90;;;;;;5065236;28;20037;-82
2020/12/02 11:06:46;;;;;;;22.70;9.63;;;5.10;99.90;;;;;;5065281;28;20021;-80
2020/12/02 11:09:31;;;;;;;22.88;8.32;;;5.10;99.90;;;;;;5064292;28;20032;-81
2020/12/02 11:12:15;;;;;;;18.10;9.88;;;5.10;99.90;;;;;;5066047;28;20013;-81
2020/12/02 11:15:12;;;;;;;22.95;10.13;;;5.10;99.90;;;;;;5066072;28;20146;-82
2020/12/02 11:18:07;;;;;;;18.02;9.35;;;5.00;99.90;;;;;;5064392;28;20037;-81
2020/12/02 11:20:47;;;;;;;19.15;9.40;;;5.10;99.90;;;;;;5065562;28;20021;-80
2020/12/02 11:23:30;;;;;;;25.38;9.38;;;5.10;99.90;;;;;;5062923;28;20825;-82
2020/12/02 11:26:31;;;;;;;24.85;10.30;;;5.10;99.90;;;;;;5064778;28;20047;-81
2020/12/02 11:28:58;;;;;;;20.55;9.60;;;5.10;99.90;;;;;;5063505;28;20053;-82
2020/12/02 11:31:49;;;;;;;18.00;8.70;;;5.00;99.90;;;;;;5063166;28;20021;-81
2020/12/02 11:34:44;;;;;;;29.35;11.10;;;5.10;99.90;;;;;;5063066;28;20025;-82
2020/12/02 11:37:23;;;;;;;16.45;8.45;;;5.00;99.90;;;;;;5063185;28;20025;-80
2020/12/02 11:39:55;;;;;;;32.60;11.60;;;5.00;99.90;;;;;;5042962;28;20040;-80
2020/12/02 11:42:37;;;;;;;19.95;9.55;;;5.00;99.90;;;;;;5044554;28;20013;-81
2020/12/02 11:45:21;;;;;;;23.02;9.98;;;5.10;99.90;;;;;;5059695;28;20041;-80
2020/12/02 11:47:59;;;;;;;23.13;9.35;;;5.10;99.90;;;;;;5052494;28;20520;-79
2020/12/02 11:50:37;;;;;;;28.40;8.65;;;5.10;99.90;;;;;;5051674;28;20553;-83
2020/12/02 11:53:37;;;;;;;20.35;9.38;;;5.10;99.90;;;;;;5054001;28;20021;-81
2020/12/02 11:56:04;;;;;;;21.23;9.77;;;5.00;99.90;;;;;;5051734;28;20070;-81
2020/12/02 11:58:30;;;;;;;22.98;10.35;;;5.00;99.90;;;;;;5050322;28;20029;-80
2020/12/02 12:01:03;;;;;;;22.00;8.93;;;5.00;99.90;;;;;;5058165;28;20321;-82
2020/12/02 12:03:50;;;;;;;19.08;9.85;;;5.10;99.90;;;;;;5049799;28;20392;-79
2020/12/02 12:06:22;;;;;;;23.08;10.25;;;5.10;99.90;;;;;;5050864;28;20474;-81
2020/12/02 12:09:10;;;;;;;28.90;10.18;;;5.00;99.90;;;;;;5050248;28;20124;-80
2020/12/02 12:11:39;;;;;;;24.20;10.30;;;5.00;99.90;;;;;;5051909;28;20152;-79
2020/12/02 12:14:10;;;;;;;29.27;10.65;;;5.00;99.90;;;;;;5054123;28;20033;-81
2020/12/02 12:16:48;;;;;;;26.23;10.57;;;5.00;99.90;;;;;;5050569;28;20025;-82
2020/12/02 12:19:34;;;;;;;22.13;10.45;;;5.00;99.90;;;;;;5050087;28;20033;-80
2020/12/02 12:22:05;;;;;;;27.65;11.18;;;5.00;99.90;;;;;;5049615;28;20107;-80
2020/12/02 12:24:31;;;;;;;25.83;12.45;;;5.00;99.90;;;;;;5049370;28;20048;-79
2020/12/02 12:26:57;;;;;;;25.98;10.77;;;5.00;99.90;;;;;;5058398;28;20035;-81
2020/12/02 12:29:22;;;;;;;16.10;8.30;;;4.90;99.90;;;;;;5049483;28;20025;-80
2020/12/02 12:32:20;;;;;;;19.75;11.07;;;4.90;99.90;;;;;;5050275;28;20106;-82
2020/12/02 12:35:01;;;;;;;18.88;9.50;;;4.90;99.90;;;;;;5041289;28;20112;-79
2020/12/02 12:37:30;;;;;;;25.73;10.02;;;4.90;99.90;;;;;;5051016;28;20141;-82
2020/12/02 12:40:00;;;;;;;32.50;11.65;;;4.90;99.90;;;;;;5051229;28;20163;-81
2020/12/02 12:42:29;;;;;;;22.02;10.20;;;4.90;99.90;;;;;;5050300;28;20036;-80
2020/12/02 12:44:58;;;;;;;26.92;9.18;;;4.90;99.90;;;;;;5049388;28;20579;-80
2020/12/02 12:47:28;;;;;;;24.58;11.30;;;4.90;99.90;;;;;;5050993;28;20020;-81
2020/12/02 12:49:55;;;;;;;23.27;9.40;;;4.90;99.90;;;;;;5058506;28;20033;-80
2020/12/02 12:52:28;;;;;;;30.92;10.80;;;4.90;99.90;;;;;;5049762;28;20032;-82
2020/12/02 12:54:54;;;;;;;19.67;10.90;;;5.00;99.90;;;;;;5053482;28;20145;-83
2020/12/02 12:57:29;;;;;;;25.75;10.65;;;4.90;99.90;;;;;;5054119;28;20485;-81
2020/12/02 13:00:06;;;;;;;23.58;10.05;;;4.90;99.90;;;;;;5050390;28;20037;-82
2020/12/02 13:02:37;;;;;;;30.35;10.93;;;4.90;99.90;;;;;;5060453;28;20194;-81
2020/12/02 13:05:10;;;;;;;25.85;10.27;;;4.90;99.90;;;;;;5054427;28;20055;-83
2020/12/02 13:07:39;;;;;;;27.30;10.30;;;4.80;99.90;;;;;;5053730;28;20024;-84
2020/12/02 13:10:40;;;;;;;25.45;10.32;;;5.10;99.90;;;;;;5053515;28;20036;-81